Terminal Aerodrome Forecast
Issued by NWS

Home | Current Version | Previous Version | Text Only | Print | Product List | Glossary On
Versions: 1 2 3 4 5 6 7 8 9 10 11 12 13 14 15 16 17 18 19 20 21 22 23 24 25 26 27 28 29 30 31 32 33 34 35 36 37 38 39 40 41 42 43 44 45 46
000
FTUS43 KDMX 261224 AAA
TAFFOD
TAF AMD
KFOD 261224Z 2612/2712 35006KT 3SM BR OVC003
      TEMPO 2612/2615 1SM BR
     FM261500 35007KT 4SM BR OVC004
     FM262000 34007KT P6SM OVC007
     FM270600 35004KT 3SM BR OVC003=

USA.gov is the U.S. government's official web portal to all federal, state and local government web resources and services.